Du har inga inställningar för hoppväder.nu

Hoppväder.nu

Senast uppdaterat 01:48

UTC-tid

2019-12-06 kl. 00:48


Sol och måne

Solen går upp 9:04 och går ner 14:20 (beräknade cirkatider)
Nästa fullmåne blir om 6 dagar (2019-12-12)

METAR

ESNN (Sundsvall)
(28 minuter sedan)
ESNN 060020Z AUTO 33004KT 9999 OVC100/// M02/M02 Q0983=



ESNK (Kramfors)
(28 minuter sedan)
ESNK 060020Z AUTO VRB02KT 9999 OVC100/// M02/M02 Q0983=



ESNO (Örnsköldsvik)
(28 minuter sedan)
ESNO 060020Z AUTO 23007KT 9999 NCD M01/M03 Q0982=



ESNY (Söderhamn)
ESNY NIL=



ESNZ (Östersund)
(28 minuter sedan)
ESNZ 060020Z AUTO 18006KT 9999 FEW044/// M00/M01 Q0980=



TAF

ESNN (Sundsvall)
(258 minuter sedan)
ESNN 052030Z 0521/0523 23009KT CAVOK=



ESNK (Kramfors)
ESNK



ESNO (Örnsköldsvik)
(258 minuter sedan)
ESNO 052030Z 0521/0523 23008KT CAVOK=



ESNY (Söderhamn)
ESNY



ESNZ (Östersund)
(204 minuter sedan)
ESNZ AMD 052124Z 0521/0524 18007KT CAVOK=





Kodnycklar till TAF och METAR






LHP

(Sundsvall är område D1a i Sydöstra delen)

Prognos är inte uppdaterad




Spotting

Hur fungerar spotthjälpen och Vindkartan?

Markvind är ca 0 m/s.



Vindkartan

Senast uppdaterad 01:48




All data kommer från LFV.se